Time;durP1;ratioP1;P1;durP2;ratioP2;P2;SDS_P1;SDS_P2;PMS_P1;PMS_P2;Temp;Humidity;BMP_temperature;BMP_pressure;BME280_temperature;BME280_humidity;BME280_pressure;Samples;Min_cycle;Max_cycle;Signal;HPM_P1;HPM_P2
2021/12/15 00:00:30;;;;;;;56.42;37.03;;;;;;;7.91;99.99;102872.00;5052206;28;20039;-71
2021/12/15 00:02:56;;;;;;;54.40;36.58;;;;;;;7.91;100.00;102877.31;5040883;28;20029;-71
2021/12/15 00:05:23;;;;;;;60.40;36.20;;;;;;;7.89;100.00;102876.50;5053449;28;20395;-71
2021/12/15 00:07:54;;;;;;;55.33;37.28;;;;;;;7.89;100.00;102873.84;5051970;28;20047;-71
2021/12/15 00:10:21;;;;;;;59.40;37.08;;;;;;;7.89;100.00;102869.44;5053044;28;20080;-71
2021/12/15 00:12:47;;;;;;;53.85;35.78;;;;;;;7.89;100.00;102871.19;5045913;28;20542;-71
2021/12/15 00:15:12;;;;;;;57.78;37.33;;;;;;;7.89;100.00;102863.25;5053369;28;20104;-71
2021/12/15 00:17:38;;;;;;;56.25;36.10;;;;;;;7.90;100.00;102859.72;5051883;28;20029;-71
2021/12/15 00:20:06;;;;;;;59.75;37.08;;;;;;;7.88;100.00;102867.69;5053107;28;20040;-71
2021/12/15 00:22:32;;;;;;;58.30;36.67;;;;;;;7.89;100.00;102856.22;5048498;28;20087;-71
2021/12/15 00:24:57;;;;;;;57.50;36.85;;;;;;;7.89;100.00;102853.56;5033223;28;20467;-71
2021/12/15 00:27:24;;;;;;;61.47;38.10;;;;;;;7.88;100.00;102845.69;5033269;28;20026;-71
2021/12/15 00:29:49;;;;;;;57.15;37.03;;;;;;;7.88;100.00;102851.81;5033210;28;20395;-71
2021/12/15 00:32:15;;;;;;;59.63;37.35;;;;;;;7.88;100.00;102850.97;5035128;28;20026;-71
2021/12/15 00:34:41;;;;;;;59.00;37.20;;;;;;;7.87;100.00;102855.38;5061100;28;20386;-71
2021/12/15 00:37:07;;;;;;;57.95;37.10;;;;;;;7.88;100.00;102861.56;5072514;28;20028;-71
2021/12/15 00:39:32;;;;;;;56.30;36.70;;;;;;;7.87;100.00;102852.72;5034357;28;20060;-71
2021/12/15 00:41:58;;;;;;;58.33;36.80;;;;;;;7.87;100.00;102855.38;5032852;28;20037;-71
2021/12/15 00:44:24;;;;;;;56.58;36.25;;;;;;;7.88;100.00;102857.13;5032881;28;20074;-71
2021/12/15 00:46:51;;;;;;;55.70;36.00;;;;;;;7.88;100.00;102850.97;5032888;28;20029;-71
2021/12/15 00:49:18;;;;;;;53.67;36.42;;;;;;;7.88;100.00;102859.75;5032553;28;20464;-71
2021/12/15 00:51:43;;;;;;;55.50;36.13;;;;;;;7.88;100.00;102856.25;5032599;28;20028;-71
2021/12/15 00:54:09;;;;;;;57.92;36.03;;;;;;;7.87;100.00;102850.09;5032786;28;20484;-71
2021/12/15 00:56:35;;;;;;;55.17;35.10;;;;;;;7.88;100.00;102854.47;5032836;28;20036;-71
2021/12/15 00:59:04;;;;;;;52.10;34.47;;;;;;;7.88;100.00;102850.97;5031057;28;20106;-71
2021/12/15 01:01:29;;;;;;;54.70;35.83;;;;;;;7.88;100.00;102850.97;5032495;28;20029;-71
2021/12/15 01:03:55;;;;;;;52.38;33.85;;;;;;;7.89;100.00;102850.03;5032305;28;20034;-71
2021/12/15 01:06:21;;;;;;;56.60;34.80;;;;;;;7.89;100.00;102850.94;5032206;28;20072;-71
2021/12/15 01:08:55;;;;;;;52.78;33.85;;;;;;;7.89;100.00;102855.31;5031567;28;20494;-71
2021/12/15 01:11:44;;;;;;;56.60;33.85;;;;;;;7.88;100.00;102854.47;5032501;28;20029;-71
2021/12/15 01:19:53;;;;;;;54.20;34.33;;;;;;;7.88;100.00;102853.63;5032806;28;20049;-70
2021/12/15 01:22:27;;;;;;;56.17;36.13;;;;;;;7.90;100.00;102865.00;5031744;28;20535;-71
2021/12/15 01:25:06;;;;;;;58.55;35.70;;;;;;;7.84;100.00;102855.47;5032621;28;20475;-71
2021/12/15 01:27:31;;;;;;;56.77;34.87;;;;;;;7.87;100.00;102854.53;5031946;28;20029;-71
2021/12/15 01:29:56;;;;;;;59.03;35.20;;;;;;;7.89;100.00;102868.56;5046341;28;20040;-71
2021/12/15 01:32:22;;;;;;;57.25;34.97;;;;;;;7.88;100.00;102857.13;5051584;28;20455;-71
2021/12/15 01:34:47;;;;;;;57.22;35.05;;;;;;;7.89;100.00;102863.25;5049841;28;20028;-71
2021/12/15 01:37:13;;;;;;;55.90;34.53;;;;;;;7.88;100.00;102862.41;5046648;28;20040;-71
2021/12/15 01:39:39;;;;;;;58.03;36.17;;;;;;;7.87;100.00;102865.97;5057431;28;20024;-71
2021/12/15 01:42:06;;;;;;;61.40;34.83;;;;;;;7.82;100.00;102852.00;5056646;28;20023;-71
2021/12/15 01:47:01;;;;;;;60.20;35.78;;;;;;;7.85;100.00;102867.78;5041924;28;20128;-71
2021/12/15 01:49:38;;;;;;;57.50;35.20;;;;;;;7.84;100.00;102863.41;5063814;28;20032;-71
2021/12/15 01:52:09;;;;;;;57.45;35.67;;;;;;;7.86;100.00;102858.06;5071306;28;20032;-71
2021/12/15 01:54:37;;;;;;;58.58;34.67;;;;;;;7.87;100.00;102871.25;5044186;28;20034;-71
2021/12/15 01:57:05;;;;;;;62.42;35.70;;;;;;;7.86;100.00;102874.84;5051529;28;20032;-71
2021/12/15 01:59:31;;;;;;;61.80;36.38;;;;;;;7.87;100.00;102865.97;5050234;28;20034;-71
2021/12/15 02:01:57;;;;;;;56.17;34.67;;;;;;;7.88;100.00;102872.13;5070138;28;20094;-70
2021/12/15 02:04:22;;;;;;;60.22;36.20;;;;;;;7.89;100.00;102871.19;5059559;28;20091;-71
2021/12/15 02:06:48;;;;;;;60.25;34.70;;;;;;;7.89;100.00;102876.50;5056768;28;20020;-71
2021/12/15 02:09:26;;;;;;;64.03;36.65;;;;;;;7.89;100.00;102880.03;5068515;28;20109;-71
2021/12/15 02:11:51;;;;;;;57.72;34.45;;;;;;;7.91;99.89;102887.88;5056808;28;20020;-71
2021/12/15 02:14:17;;;;;;;56.05;34.95;;;;;;;7.90;100.00;102891.47;5057931;28;20034;-71
2021/12/15 02:16:42;;;;;;;62.67;36.08;;;;;;;7.90;100.00;102887.03;5031116;28;20040;-71
2021/12/15 02:19:08;;;;;;;58.50;35.90;;;;;;;7.90;100.00;102884.38;5030978;28;20069;-71
2021/12/15 02:21:33;;;;;;;59.55;36.58;;;;;;;7.90;100.00;102886.19;5030896;28;20029;-71
2021/12/15 02:24:00;;;;;;;60.80;35.05;;;;;;;7.90;100.00;102889.69;5030990;28;20064;-71
2021/12/15 02:26:35;;;;;;;56.92;35.15;;;;;;;7.88;100.00;102885.38;5031033;28;20029;-71
2021/12/15 02:29:02;;;;;;;61.38;36.78;;;;;;;7.89;100.00;102887.97;5030918;28;20062;-71
2021/12/15 02:31:53;;;;;;;60.95;36.28;;;;;;;7.89;100.00;102887.97;5030975;28;20117;-71
2021/12/15 02:34:43;;;;;;;61.35;35.13;;;;;;;7.88;100.00;102883.56;5031206;28;20037;-71
2021/12/15 02:37:20;;;;;;;59.85;34.70;;;;;;;7.91;100.00;102886.13;5030969;28;20435;-71
2021/12/15 02:39:52;;;;;;;59.78;34.58;;;;;;;7.92;100.00;102885.19;5030756;28;20069;-71
2021/12/15 02:42:20;;;;;;;59.60;34.30;;;;;;;7.92;100.00;102889.63;5030641;28;20529;-71
2021/12/15 02:44:46;;;;;;;56.13;34.35;;;;;;;7.92;100.00;102881.69;5039959;28;20032;-71
2021/12/15 02:47:17;;;;;;;60.53;34.13;;;;;;;7.91;100.00;102886.13;5050539;28;20140;-71
2021/12/15 02:49:43;;;;;;;57.90;34.33;;;;;;;7.92;100.00;102885.19;5070331;28;20039;-71
2021/12/15 02:52:09;;;;;;;58.85;35.15;;;;;;;7.91;100.00;102880.84;5056122;28;20379;-71
2021/12/15 02:54:35;;;;;;;65.35;36.28;;;;;;;7.92;100.00;102882.53;5049373;28;20029;-71
2021/12/15 02:57:06;;;;;;;60.67;36.03;;;;;;;7.92;100.00;102884.34;5061113;28;20489;-71
2021/12/15 02:59:47;;;;;;;58.08;34.40;;;;;;;7.92;100.00;102890.47;5043832;28;20036;-71
2021/12/15 03:02:45;;;;;;;58.58;34.83;;;;;;;7.92;100.00;102886.97;5070514;28;20021;-71
2021/12/15 03:05:16;;;;;;;60.80;34.55;;;;;;;7.92;100.00;102884.34;5044648;28;20376;-71
2021/12/15 03:15:40;;;;;;;57.78;34.22;;;;;;;7.93;100.00;102876.34;5039144;28;20051;-71
2021/12/15 03:18:36;;;;;;;57.13;34.20;;;;;;;7.95;100.00;102876.31;5049927;28;20383;-70
2021/12/15 03:21:11;;;;;;;62.33;35.38;;;;;;;7.93;100.00;102871.06;5057524;28;20060;-71
2021/12/15 03:23:52;;;;;;;62.60;34.90;;;;;;;7.92;100.00;102869.31;5054023;28;20021;-71
2021/12/15 03:26:27;;;;;;;58.38;34.85;;;;;;;7.93;100.00;102870.19;5066648;28;20025;-71
2021/12/15 03:34:49;;;;;;;;;;;;;;;;;;;;;
2021/12/15 03:37:23;;;;;;;59.58;34.85;;;;;;;7.93;100.00;102872.84;5051217;28;20048;-71
2021/12/15 03:40:00;;;;;;;53.40;32.65;;;;;;;7.95;100.00;102878.94;5073959;28;20052;-71
2021/12/15 03:42:33;;;;;;;56.30;32.33;;;;;;;7.94;100.00;102877.22;5069073;28;20035;-71
2021/12/15 03:45:00;;;;;;;58.95;33.33;;;;;;;7.94;100.00;102880.75;5046463;28;20025;-71
2021/12/15 03:47:30;;;;;;;54.33;33.25;;;;;;;7.95;100.00;102885.09;5067828;28;20040;-71
2021/12/15 03:49:57;;;;;;;54.47;33.05;;;;;;;7.96;100.00;102885.97;5053533;28;20123;-71
2021/12/15 03:52:23;;;;;;;52.05;32.20;;;;;;;7.97;100.00;102888.56;5052780;28;20033;-71
2021/12/15 03:54:49;;;;;;;54.25;33.42;;;;;;;7.96;100.00;102888.63;5073511;28;20027;-71
2021/12/15 03:57:15;;;;;;;59.95;32.33;;;;;;;7.94;100.00;102888.69;5049872;28;20052;-71
2021/12/15 03:59:43;;;;;;;54.00;32.20;;;;;;;7.96;100.00;102889.47;5070568;28;20036;-71
2021/12/15 04:02:13;;;;;;;56.97;32.80;;;;;;;7.97;100.00;102892.97;5059514;28;20108;-71
2021/12/15 04:04:40;;;;;;;52.72;30.48;;;;;;;7.96;100.00;102889.47;5070877;28;20025;-71
2021/12/15 04:07:06;;;;;;;55.22;32.47;;;;;;;7.99;100.00;102898.22;5073413;28;20514;-71
2021/12/15 04:09:32;;;;;;;50.58;30.90;;;;;;;7.99;100.00;102901.72;5051966;28;20080;-71
2021/12/15 04:11:58;;;;;;;53.40;30.80;;;;;;;7.97;100.00;102893.84;5073441;28;20115;-71
2021/12/15 04:14:29;;;;;;;53.15;31.70;;;;;;;7.98;100.00;102894.72;5058351;28;20029;-71
2021/12/15 04:17:06;;;;;;;48.00;30.63;;;;;;;7.99;100.00;102899.09;5059736;28;20514;-71
2021/12/15 04:19:35;;;;;;;47.25;29.65;;;;;;;8.00;100.00;102900.81;5073232;28;20033;-71
2021/12/15 04:22:01;;;;;;;52.05;30.52;;;;;;;8.00;100.00;102899.97;5057218;28;20033;-71
2021/12/15 04:24:28;;;;;;;48.33;30.30;;;;;;;8.00;100.00;102899.97;5068674;28;20633;-71
2021/12/15 04:26:56;;;;;;;53.45;31.45;;;;;;;8.00;100.00;102899.97;5071578;28;20031;-71
2021/12/15 04:29:22;;;;;;;52.30;30.93;;;;;;;8.01;100.00;102906.97;5072741;28;20071;-71
2021/12/15 04:31:58;;;;;;;54.65;31.60;;;;;;;8.00;100.00;102905.28;5072102;28;20315;-71
2021/12/15 04:34:24;;;;;;;54.45;30.90;;;;;;;8.00;100.00;102916.72;5061505;28;20112;-71
2021/12/15 04:36:52;;;;;;;47.03;29.23;;;;;;;7.99;100.00;102909.66;5061529;28;20115;-71
2021/12/15 04:39:21;;;;;;;49.60;30.50;;;;;;;7.99;100.00;102908.81;5059914;28;20031;-71
2021/12/15 04:41:49;;;;;;;47.78;29.75;;;;;;;7.99;100.00;102916.75;5065845;28;20123;-71
2021/12/15 04:44:17;;;;;;;57.13;30.40;;;;;;;7.94;100.00;102912.50;5067283;28;20021;-71
2021/12/15 04:47:00;;;;;;;47.60;29.90;;;;;;;8.00;100.00;102918.50;5060991;28;20035;-70
2021/12/15 04:49:28;;;;;;;47.17;29.17;;;;;;;7.99;100.00;102914.09;5072694;28;20032;-71
2021/12/15 04:51:53;;;;;;;51.63;31.08;;;;;;;7.99;100.00;102916.75;5058142;28;20083;-71
2021/12/15 04:54:19;;;;;;;48.53;28.83;;;;;;;8.00;100.00;102922.00;5072564;28;20106;-71
2021/12/15 04:56:45;;;;;;;48.78;30.58;;;;;;;8.00;100.00;102915.84;5061610;28;20041;-71
2021/12/15 04:59:13;;;;;;;48.35;30.33;;;;;;;8.00;100.00;102921.16;5061645;28;20457;-70
2021/12/15 05:01:38;;;;;;;48.92;28.88;;;;;;;8.00;100.00;102924.66;5056400;28;20028;-71
2021/12/15 05:04:03;;;;;;;48.88;28.90;;;;;;;8.00;100.00;102918.50;5061028;28;20025;-71
2021/12/15 05:06:29;;;;;;;47.38;29.25;;;;;;;7.99;100.00;102924.69;5050490;28;20432;-71
2021/12/15 05:08:55;;;;;;;46.10;28.45;;;;;;;8.00;100.00;102926.44;5061211;28;20506;-71
2021/12/15 05:11:21;;;;;;;48.40;29.17;;;;;;;8.00;100.00;102929.09;5047263;28;20026;-71
2021/12/15 05:13:47;;;;;;;44.75;28.67;;;;;;;7.99;100.00;102929.97;5070767;28;20316;-71
2021/12/15 05:16:12;;;;;;;46.40;29.10;;;;;;;7.96;100.00;102923.88;5070117;28;20029;-71
2021/12/15 05:18:38;;;;;;;46.35;28.05;;;;;;;8.00;100.00;102926.44;5052914;28;20025;-70
2021/12/15 05:21:07;;;;;;;50.05;29.30;;;;;;;7.99;100.00;102933.50;5063024;28;20489;-71
2021/12/15 05:23:32;;;;;;;46.92;28.63;;;;;;;7.99;100.00;102928.19;5066438;28;20023;-71
2021/12/15 05:25:59;;;;;;;45.58;27.10;;;;;;;7.98;100.00;102945.00;5061141;28;20136;-71
2021/12/15 05:28:25;;;;;;;47.38;28.17;;;;;;;8.00;100.00;102937.03;5071128;28;20035;-71
2021/12/15 05:30:51;;;;;;;46.25;27.65;;;;;;;7.97;100.00;102933.53;5068966;28;20359;-71
2021/12/15 05:33:16;;;;;;;47.20;28.17;;;;;;;7.99;100.00;102933.50;5045620;28;20029;-71
2021/12/15 05:35:41;;;;;;;48.58;29.00;;;;;;;7.99;100.00;102938.78;5071079;28;20028;-71
2021/12/15 05:38:09;;;;;;;47.72;28.77;;;;;;;7.99;100.00;102940.56;5057415;28;20071;-71
2021/12/15 05:40:35;;;;;;;47.42;28.60;;;;;;;7.97;100.00;102938.81;5055707;28;20112;-71
2021/12/15 05:43:00;;;;;;;51.22;28.50;;;;;;;7.93;100.00;102928.41;5071548;28;20426;-71
2021/12/15 05:45:29;;;;;;;45.80;28.13;;;;;;;7.98;100.00;102945.00;5048894;28;20033;-71
2021/12/15 05:47:55;;;;;;;48.70;28.48;;;;;;;7.98;100.00;102937.06;5058567;28;20055;-71
2021/12/15 05:50:21;;;;;;;49.85;29.75;;;;;;;7.99;100.00;102938.78;5063194;28;20336;-71
2021/12/15 05:52:46;;;;;;;48.28;29.42;;;;;;;8.00;100.00;102942.31;5066880;28;20103;-71
2021/12/15 05:55:14;;;;;;;46.88;28.10;;;;;;;8.00;100.00;102942.31;5071207;28;20030;-71
2021/12/15 05:57:39;;;;;;;50.22;29.23;;;;;;;8.01;100.00;102946.66;5062866;28;20513;-71
2021/12/15 06:00:09;;;;;;;50.20;29.88;;;;;;;7.99;100.00;102943.22;5061559;28;20028;-71
2021/12/15 06:02:34;;;;;;;50.08;29.15;;;;;;;8.00;100.00;102942.31;5064111;28;20033;-71
2021/12/15 06:05:08;;;;;;;51.97;29.95;;;;;;;8.00;100.00;102950.25;5128611;27;20483;-70
2021/12/15 06:07:34;;;;;;;51.58;29.42;;;;;;;7.99;100.00;102940.56;5128609;27;20032;-70
2021/12/15 06:09:59;;;;;;;53.60;30.52;;;;;;;7.98;100.00;102942.38;5099472;27;20030;-70
2021/12/15 06:12:24;;;;;;;55.45;30.52;;;;;;;7.99;100.00;102949.38;5128566;27;20092;-70
2021/12/15 06:14:51;;;;;;;55.15;31.25;;;;;;;7.99;100.00;102943.22;5128480;27;20108;-70
2021/12/15 06:17:16;;;;;;;53.20;30.25;;;;;;;8.00;100.00;102944.97;5121811;27;20081;-70
2021/12/15 06:19:41;;;;;;;54.10;30.63;;;;;;;7.99;100.00;102941.44;5128411;27;20469;-70
2021/12/15 06:22:08;;;;;;;57.65;32.38;;;;;;;7.99;100.00;102948.50;5128396;27;20035;-69
2021/12/15 06:24:36;;;;;;;58.05;30.65;;;;;;;7.98;100.00;102945.00;5115770;27;20024;-69
2021/12/15 06:27:09;;;;;;;53.15;30.98;;;;;;;7.99;100.00;102951.16;5121454;28;20079;-69
2021/12/15 06:29:35;;;;;;;54.13;31.60;;;;;;;7.98;100.00;102955.59;5108055;28;20035;-69
2021/12/15 06:32:02;;;;;;;61.15;32.47;;;;;;;8.00;100.00;102960.84;5102406;28;20481;-69
2021/12/15 06:34:27;;;;;;;56.00;31.67;;;;;;;7.99;100.00;102961.75;5126649;27;20039;-69
2021/12/15 06:36:53;;;;;;;55.35;30.67;;;;;;;7.99;100.00;102957.31;5114139;27;20028;-70
2021/12/15 06:39:18;;;;;;;56.97;32.22;;;;;;;7.99;100.00;102957.31;5107991;28;20544;-70
2021/12/15 06:41:44;;;;;;;60.47;32.58;;;;;;;8.01;100.00;102965.19;5112887;27;20030;-70
2021/12/15 06:44:11;;;;;;;62.67;32.85;;;;;;;7.98;100.00;102960.88;5106729;28;20020;-70
2021/12/15 06:58:10;;;;;;;65.22;33.75;;;;;;;8.00;100.00;102966.97;5112023;28;20401;-71
2021/12/15 07:00:19;;;;;;;60.20;32.15;;;;;;;8.00;100.00;102966.97;5116455;27;20040;-70
2021/12/15 07:02:44;;;;;;;59.85;32.53;;;;;;;8.01;100.00;102965.19;5115789;28;20105;-70
2021/12/15 07:05:11;;;;;;;65.32;32.67;;;;;;;8.02;100.00;102974.88;5114725;27;20504;-70
2021/12/15 07:07:39;;;;;;;67.00;33.45;;;;;;;8.01;100.00;102974.03;5119883;28;20511;-70
2021/12/15 07:10:06;;;;;;;58.63;32.25;;;;;;;8.01;100.00;102975.78;5126727;27;20043;-70
2021/12/15 07:12:32;;;;;;;61.03;32.70;;;;;;;8.01;100.00;102979.31;5100751;27;20115;-71
2021/12/15 07:14:57;;;;;;;62.33;33.20;;;;;;;8.02;100.00;102988.13;5091937;27;20527;-71
2021/12/15 07:17:25;;;;;;;61.63;32.85;;;;;;;8.02;100.00;102982.81;5106173;28;20467;-70
2021/12/15 07:22:36;;;;;;;63.80;32.83;;;;;;;8.02;100.00;102981.03;5098617;28;20044;-70
2021/12/15 07:25:04;;;;;;;59.05;33.17;;;;;;;8.03;100.00;102976.63;5087544;28;20429;-70
2021/12/15 07:27:30;;;;;;;62.78;32.88;;;;;;;8.02;100.00;102988.97;5089259;28;20040;-70
2021/12/15 07:29:55;;;;;;;67.68;34.38;;;;;;;8.02;100.00;102993.41;5093905;27;20120;-70
2021/12/15 07:32:20;;;;;;;69.05;35.22;;;;;;;8.04;100.00;102999.50;5103162;28;20419;-70
2021/12/15 07:34:46;;;;;;;70.82;35.20;;;;;;;8.05;100.00;102998.59;5095878;27;20045;-70
2021/12/15 07:37:13;;;;;;;65.13;34.10;;;;;;;8.06;100.00;103002.97;5098373;28;20174;-70
2021/12/15 07:39:43;;;;;;;69.35;33.47;;;;;;;8.05;100.00;103002.09;5109457;27;20111;-70
2021/12/15 07:42:11;;;;;;;62.88;33.85;;;;;;;8.05;100.00;102999.47;5086595;28;20113;-70
2021/12/15 07:44:37;;;;;;;70.97;34.20;;;;;;;8.05;100.00;102999.47;5093154;28;20040;-70
2021/12/15 07:47:04;;;;;;;68.70;35.13;;;;;;;8.06;100.00;103001.22;5091900;28;20024;-68
2021/12/15 07:49:30;;;;;;;65.40;34.08;;;;;;;8.06;100.00;103005.63;5103862;27;20040;-70
2021/12/15 07:52:01;;;;;;;64.28;34.53;;;;;;;8.07;100.00;103000.28;5103829;28;20626;-70
2021/12/15 07:54:29;;;;;;;70.40;35.40;;;;;;;8.07;100.00;103010.00;5100069;27;20040;-70
2021/12/15 07:56:54;;;;;;;72.65;35.88;;;;;;;8.07;100.00;102994.13;5093892;28;20036;-70
2021/12/15 07:59:20;;;;;;;76.00;36.47;;;;;;;8.08;100.00;103012.59;5101135;27;20040;-71
2021/12/15 08:01:45;;;;;;;74.65;37.30;;;;;;;8.08;100.00;103006.47;5099849;28;20024;-69
2021/12/15 08:04:11;;;;;;;72.80;37.35;;;;;;;8.08;100.00;103006.47;5076815;28;20040;-69
2021/12/15 08:06:36;;;;;;;77.68;36.92;;;;;;;8.07;100.00;103013.50;5089320;28;20314;-69
2021/12/15 08:09:03;;;;;;;76.18;36.95;;;;;;;8.08;100.00;103012.59;5077101;27;20035;-69
2021/12/15 08:11:28;;;;;;;72.07;37.80;;;;;;;8.08;100.00;103006.47;5094043;28;20383;-69
2021/12/15 08:13:54;;;;;;;72.75;36.45;;;;;;;8.10;100.00;103012.56;5105018;27;20028;-69
2021/12/15 08:16:19;;;;;;;70.18;35.97;;;;;;;8.10;100.00;103020.50;5087132;28;20036;-70
2021/12/15 08:18:46;;;;;;;72.25;37.15;;;;;;;8.10;100.00;103024.00;5083495;28;20420;-69
2021/12/15 08:21:12;;;;;;;74.72;37.60;;;;;;;8.11;100.00;103015.16;5088739;28;20036;-69
2021/12/15 08:23:37;;;;;;;69.13;37.70;;;;;;;8.11;100.00;103014.28;5098705;28;20488;-69
2021/12/15 08:26:04;;;;;;;73.97;38.42;;;;;;;8.12;100.00;103018.66;5084659;28;20028;-69
2021/12/15 08:28:29;;;;;;;71.13;36.22;;;;;;;8.13;100.00;103020.41;5095664;28;20177;-69
2021/12/15 08:30:55;;;;;;;78.03;38.80;;;;;;;8.13;100.00;103020.41;5074074;28;20104;-69
2021/12/15 08:33:22;;;;;;;71.43;38.17;;;;;;;8.10;100.00;103013.41;5089366;28;20020;-69
2021/12/15 08:35:56;;;;;;;67.78;36.88;;;;;;;8.14;100.00;103022.13;5111803;28;20024;-69
2021/12/15 08:38:22;;;;;;;68.47;37.60;;;;;;;8.14;100.00;103025.66;5102463;28;20019;-70
2021/12/15 08:40:47;;;;;;;72.13;37.63;;;;;;;8.15;100.00;103022.06;5103669;28;20027;-69
2021/12/15 08:43:14;;;;;;;77.22;38.50;;;;;;;8.15;100.00;103018.56;5111439;28;20024;-70
2021/12/15 08:45:43;;;;;;;73.72;39.55;;;;;;;8.17;100.00;103022.03;5093825;28;20042;-70
2021/12/15 08:48:09;;;;;;;73.45;38.20;;;;;;;8.18;100.00;103023.78;5093531;28;20467;-70
2021/12/15 08:50:38;;;;;;;69.95;38.70;;;;;;;8.16;100.00;103017.66;5101688;28;20043;-70
2021/12/15 08:53:05;;;;;;;73.40;40.05;;;;;;;8.20;100.00;103029.88;5111134;28;20020;-70
2021/12/15 08:55:31;;;;;;;82.15;41.20;;;;;;;8.21;100.00;103021.03;5101317;28;20073;-70
2021/12/15 08:57:59;;;;;;;71.70;39.00;;;;;;;8.22;100.00;103024.53;5083986;28;20701;-70
2021/12/15 09:00:26;;;;;;;73.85;38.60;;;;;;;8.21;100.00;103026.31;5103460;28;20028;-70
2021/12/15 09:02:53;;;;;;;68.57;39.55;;;;;;;8.21;100.00;103033.38;5087607;28;20545;-70
2021/12/15 09:05:21;;;;;;;71.45;38.58;;;;;;;8.24;100.00;103039.44;5097700;28;20112;-70
2021/12/15 09:07:51;;;;;;;69.32;38.60;;;;;;;8.25;100.00;103041.19;5086843;28;20027;-69
2021/12/15 09:10:19;;;;;;;69.35;37.17;;;;;;;8.27;100.00;103039.34;5085784;28;20115;-70
2021/12/15 09:12:44;;;;;;;71.78;38.80;;;;;;;8.27;100.00;103031.41;5080689;28;20496;-70
2021/12/15 09:15:11;;;;;;;67.10;38.25;;;;;;;8.27;100.00;103039.34;5072261;28;20071;-70
2021/12/15 09:17:37;;;;;;;65.68;36.72;;;;;;;8.30;100.00;103041.03;5068348;28;20033;-70
2021/12/15 09:20:07;;;;;;;65.63;37.70;;;;;;;8.31;100.00;103041.00;5084565;28;20032;-70
2021/12/15 09:22:34;;;;;;;69.40;37.72;;;;;;;8.32;100.00;103048.00;5071118;28;20050;-69
2021/12/15 09:25:00;;;;;;;67.72;37.83;;;;;;;8.33;100.00;103052.41;5091449;28;20032;-70
2021/12/15 09:27:25;;;;;;;65.63;37.33;;;;;;;8.35;100.00;103052.34;5100670;28;20031;-70
2021/12/15 09:29:51;;;;;;;68.32;35.90;;;;;;;8.36;100.00;103050.56;5105000;28;20035;-70
2021/12/15 09:32:16;;;;;;;64.72;37.22;;;;;;;8.38;100.00;103056.72;5098053;28;20390;-70
2021/12/15 09:34:41;;;;;;;68.47;38.58;;;;;;;8.39;100.00;103069.00;5087516;28;20028;-70
2021/12/15 09:37:07;;;;;;;65.15;37.30;;;;;;;8.40;100.00;103060.16;5103888;28;20112;-70
2021/12/15 09:39:33;;;;;;;69.18;37.67;;;;;;;8.40;100.00;103066.31;5085982;28;20035;-70
2021/12/15 09:42:00;;;;;;;69.38;39.58;;;;;;;8.42;100.00;103060.97;5090351;28;20039;-69
2021/12/15 09:44:27;;;;;;;67.07;39.08;;;;;;;8.44;100.00;103057.41;5083755;28;20054;-70
2021/12/15 10:03:37;;;;;;;61.63;37.83;;;;;;;8.59;100.00;103068.41;5097898;28;20528;-70
2021/12/15 10:19:40;;;;;;;66.90;39.97;;;;;;;8.75;100.00;103066.13;5082188;28;20344;-70
2021/12/15 10:22:25;;;;;;;62.85;39.55;;;;;;;8.77;100.00;103065.16;5067793;28;20028;-70
2021/12/15 10:25:00;;;;;;;58.85;37.00;;;;;;;8.79;100.00;103065.97;5107277;28;20110;-70
2021/12/15 10:27:53;;;;;;;67.30;41.10;;;;;;;8.84;100.00;103069.34;5104147;28;20446;-70
2021/12/15 10:30:23;;;;;;;60.45;39.67;;;;;;;8.86;100.00;103072.81;5104810;28;20095;-70
2021/12/15 10:33:00;;;;;;;62.70;40.38;;;;;;;8.89;100.00;103075.34;5098925;28;20081;-70
2021/12/15 10:35:30;;;;;;;60.55;38.83;;;;;;;8.91;99.96;103074.41;5100206;28;20169;-70
2021/12/15 10:38:25;;;;;;;67.50;40.63;;;;;;;8.94;100.00;103074.31;5109233;28;20720;-70
2021/12/15 10:40:55;;;;;;;63.72;38.97;;;;;;;8.95;99.93;103063.66;5094046;28;20119;-70
2021/12/15 10:43:23;;;;;;;60.92;39.17;;;;;;;8.97;99.75;103063.63;5105571;28;20469;-70
2021/12/15 10:45:55;;;;;;;58.55;38.50;;;;;;;8.99;99.63;103067.06;5087178;28;20028;-70
2021/12/15 10:48:45;;;;;;;62.05;39.42;;;;;;;9.01;99.95;103074.06;5104411;28;20043;-67
2021/12/15 10:51:34;;;;;;;60.45;39.97;;;;;;;9.05;99.48;103077.47;5084504;28;20043;-70
2021/12/15 10:54:19;;;;;;;62.70;39.10;;;;;;;9.05;99.43;103073.03;5103197;28;20031;-70
2021/12/15 10:56:50;;;;;;;63.30;40.28;;;;;;;9.08;99.61;103072.94;5108827;28;20460;-70
2021/12/15 10:59:16;;;;;;;57.53;38.88;;;;;;;9.09;99.33;103081.72;5112079;28;20106;-70
2021/12/15 11:01:52;;;;;;;60.10;37.65;;;;;;;9.09;99.41;103076.44;5112736;28;20027;-70
2021/12/15 11:04:53;;;;;;;60.38;38.50;;;;;;;9.15;99.41;103081.53;5112111;28;20485;-70
2021/12/15 11:07:37;;;;;;;58.25;38.63;;;;;;;9.17;99.46;103074.38;5076941;28;20032;-70
2021/12/15 11:10:15;;;;;;;59.47;37.75;;;;;;;9.19;99.26;103077.88;5086704;28;20068;-70
2021/12/15 11:12:42;;;;;;;57.63;38.60;;;;;;;9.21;99.30;103077.81;5085132;28;20025;-71
2021/12/15 11:15:16;;;;;;;60.03;40.60;;;;;;;9.18;98.85;103067.31;5092832;28;20442;-70
2021/12/15 11:17:48;;;;;;;63.85;40.50;;;;;;;9.23;98.55;103071.53;5081066;28;20379;-70
2021/12/15 11:20:33;;;;;;;59.92;39.33;;;;;;;9.25;98.69;103068.81;5089592;28;20020;-70
2021/12/15 11:23:00;;;;;;;59.15;39.15;;;;;;;9.26;98.59;103070.56;5071321;28;20036;-69
2021/12/15 11:25:36;;;;;;;61.83;39.42;;;;;;;9.29;98.46;103064.28;5085484;28;20024;-70
2021/12/15 11:28:11;;;;;;;57.53;38.25;;;;;;;9.29;98.24;103065.13;5098606;28;20073;-70
2021/12/15 11:31:01;;;;;;;59.20;39.25;;;;;;;9.30;97.87;103061.56;5071956;28;20039;-70
2021/12/15 11:33:57;;;;;;;52.92;36.65;;;;;;;9.33;97.89;103068.56;5081195;28;20032;-70
2021/12/15 11:36:31;;;;;;;50.25;37.28;;;;;;;9.35;97.92;103064.06;5076887;28;20044;-70
2021/12/15 11:38:58;;;;;;;52.85;36.95;;;;;;;9.33;97.92;103053.50;5072952;28;20406;-70
2021/12/15 11:41:37;;;;;;;53.67;37.17;;;;;;;9.40;97.76;103056.81;5079138;28;20028;-70
2021/12/15 11:44:06;;;;;;;52.25;35.50;;;;;;;9.42;97.52;103054.94;5083021;28;20016;-70
2021/12/15 11:46:41;;;;;;;52.42;35.97;;;;;;;9.45;97.08;103062.81;5074213;28;20028;-70
2021/12/15 11:49:24;;;;;;;50.83;37.10;;;;;;;9.45;97.22;103058.34;5085682;28;20024;-70
2021/12/15 11:52:04;;;;;;;50.25;35.95;;;;;;;9.47;97.02;103057.44;5102682;28;20032;-70
2021/12/15 11:54:36;;;;;;;49.53;34.85;;;;;;;9.49;96.84;103063.56;5098800;28;20020;-70
2021/12/15 11:57:06;;;;;;;52.13;35.58;;;;;;;9.49;96.85;103056.44;5095416;28;20032;-70
2021/12/15 11:59:43;;;;;;;50.22;38.53;;;;;;;9.52;97.12;103056.34;5086961;28;20059;-70
2021/12/15 12:02:18;;;;;;;49.40;34.88;;;;;;;9.54;96.73;103057.19;5096981;28;20028;-70
2021/12/15 12:04:51;;;;;;;44.47;33.80;;;;;;;9.51;96.77;103045.78;5090047;28;20053;-70
2021/12/15 12:07:36;;;;;;;47.30;34.40;;;;;;;9.55;96.45;103050.94;5081710;28;20086;-69
2021/12/15 12:10:21;;;;;;;45.53;34.05;;;;;;;9.56;95.64;103054.44;5092317;28;20042;-70
2021/12/15 12:12:53;;;;;;;48.35;33.70;;;;;;;9.55;95.92;103050.94;5099128;28;20410;-69
2021/12/15 12:15:25;;;;;;;47.58;33.15;;;;;;;9.57;95.78;103042.91;5083660;28;20039;-70
2021/12/15 12:17:55;;;;;;;44.35;34.15;;;;;;;9.51;95.94;103035.19;5100831;28;20031;-70
2021/12/15 12:20:39;;;;;;;44.85;34.17;;;;;;;9.60;95.88;103042.81;5107239;28;20031;-70
2021/12/15 12:23:09;;;;;;;41.95;33.10;;;;;;;9.60;95.44;103043.66;5096111;28;20031;-69
2021/12/15 12:25:37;;;;;;;;;;;;;;;9.69;96.46;103050.44;5100413;28;20032;-70
2021/12/15 12:28:05;;;;;;;44.37;32.10;;;;;;;9.65;95.35;103045.28;5096942;28;19955;-70